Opelousas, LA

6:02 AM CST on March 04, 2015 (GMT -0600)
Gulino Street | Change Station
CLOSE
Current Station
Personal Weather Station
Location: Opelousas, LA
Elevation: 89 ft
Nearby Weather Stations

Elev 89 ft 30.55 °N, 92.07 °W | Updated 1 minute ago

Overcast
Overcast
68.4 °F
Feels Like 68.4 °F
N
1.0
Wind Variable Wind from South
Gusts 4.7 mph

Today
High -- | Low -- °F
--% Chance of Precip.
Yesterday
High -- | Low -- °F
Precip. -- in
6:31 AM 6:09 PM
Waxing Gibbous, 99% visible
Pressure 29.94 in
Visibility 7.0 miles
Clouds Overcast 500 ft
Dew Point 68 °F
Humidity 99%
Rainfall 0.00 in
Snow Depth Not available.
UV 0 out of 12
Pollen 9.90 out of 12
Air Quality Not available.
Flu Activity Not available.
METAR KOPL 041155Z AUTO 16004KT 7SM OVC005 19/19 A2994 RMK AO2 T01940187 10205 20194

More Conditions Fewer Conditions

Pressure 29.94 in
Visibility 7.0 miles
Clouds Overcast 500 ft
Dew Point 68 °F
Humidity 99%
Rainfall 0.00 in
Snow Depth Not available.
UV 0 out of 12
Pollen 9.90 out of 12
Air Quality Not available.
Flu Activity Not available.
METAR KOPL 041155Z AUTO 16004KT 7SM OVC005 19/19 A2994 RMK AO2 T01940187 10205 20194

More Conditions Fewer Conditions

10-Day Weather Forecast

Almanac

Astronomy

Mar. 04, 2015 Rise Set
Actual Time
Civil Twilight
Nautical Twilight
Astronomical Twilight
Moon
Length of Visible Light
Length of Day
Tomorrow will be .
, % of the Moon is Illuminated

Today's Extremes

State Highs State Lows

Community

WunderPhotos

Upload Photos

1,802,436 photos uploaded!

WunderBlogs® & News

Nearby

Air Quality

  Air Quality AQ Index Pollutant
Not available.

Snow Depth

Station Depth Elevation

Earthquake Activity

City Distance Mag. Time & Date
Minimum magnitude displayed is 2.5.

Coastal Water Temperatures

Place Temperature

Nearby Weather Stations